createdAt,value
2022-08-04T00:02:16.789Z,92243.28
2022-08-04T00:05:46.947Z,92245.91
2022-08-04T00:08:57.296Z,92242.09
2022-08-04T00:12:04.228Z,92253.28
2022-08-04T00:15:10.724Z,92250.28
2022-08-04T00:18:24.491Z,92249.81
2022-08-04T00:21:29.011Z,92250.09
2022-08-04T00:24:36.516Z,92238.50
2022-08-04T00:27:40.721Z,92242.78
2022-08-04T00:30:44.871Z,92242.59
2022-08-04T00:33:49.742Z,92246.09
2022-08-04T00:36:56.194Z,92228.88
2022-08-04T00:40:00.686Z,92238.53
2022-08-04T00:43:10.198Z,92236.78
2022-08-04T00:46:53.281Z,92236.06
2022-08-04T00:50:06.513Z,92233.41
2022-08-04T00:53:10.192Z,92236.59
2022-08-04T00:56:17.871Z,92235.41
2022-08-04T00:59:27.429Z,92243.50
2022-08-04T01:03:06.627Z,92246.88
2022-08-04T01:06:38.959Z,92246.88
2022-08-04T01:10:00.449Z,92244.28
2022-08-04T01:13:27.080Z,92233.56
2022-08-04T01:16:35.754Z,92240.38
2022-08-04T01:20:08.996Z,92240.53
2022-08-04T01:23:50.414Z,92238.78
2022-08-04T01:27:17.975Z,92239.56
2022-08-04T01:30:27.780Z,92233.63
2022-08-04T01:34:04.090Z,92226.50
2022-08-04T01:37:09.534Z,92230.38
2022-08-04T01:40:15.468Z,92229.91
2022-08-04T01:43:22.416Z,92219.75
2022-08-04T01:46:27.266Z,92225.19
2022-08-04T01:49:40.340Z,92210.66
2022-08-04T01:52:50.696Z,92210.78
2022-08-04T01:55:57.559Z,92230.19
2022-08-04T01:59:04.158Z,92222.34
2022-08-04T02:02:08.066Z,92222.97
2022-08-04T02:05:17.719Z,92227.66
2022-08-04T02:09:03.385Z,92220.28
2022-08-04T02:12:15.940Z,92225.94
2022-08-04T02:15:42.579Z,92206.41
2022-08-04T02:19:05.125Z,92225.94
2022-08-04T02:22:19.003Z,92218.31
2022-08-04T02:25:26.482Z,92228.53
2022-08-04T02:28:38.078Z,92226.47
2022-08-04T02:31:52.669Z,92226.06
2022-08-04T02:35:06.994Z,92221.88
2022-08-04T02:39:02.243Z,92218.69
2022-08-04T02:42:56.945Z,92212.50
2022-08-04T02:46:17.862Z,92214.53
2022-08-04T02:49:48.887Z,92210.94
2022-08-04T02:53:04.461Z,92207.97
2022-08-04T02:56:19.406Z,92211.75
2022-08-04T02:59:27.302Z,92216.78
2022-08-04T03:03:09.484Z,92209.13
2022-08-04T03:06:53.998Z,92219.59
2022-08-04T03:10:07.236Z,92213.34
2022-08-04T03:13:22.976Z,92204.19
2022-08-04T03:17:12.681Z,92196.56
2022-08-04T03:20:41.075Z,92199.16
2022-08-04T03:24:19.714Z,92196.47
2022-08-04T03:28:04.103Z,92199.88
2022-08-04T03:31:35.726Z,92188.31
2022-08-04T03:34:45.151Z,92194.59
2022-08-04T03:38:00.938Z,92191.38
2022-08-04T03:41:51.534Z,92198.66
2022-08-04T03:45:23.981Z,92198.19
2022-08-04T03:48:54.533Z,92201.19
2022-08-04T03:52:27.227Z,92181.75
2022-08-04T03:55:52.784Z,92192.22
2022-08-04T03:59:15.134Z,92186.50
2022-08-04T04:02:56.194Z,92183.91
2022-08-04T04:06:24.816Z,92192.34
2022-08-04T04:10:05.818Z,92181.84
2022-08-04T04:13:28.602Z,92198.41
2022-08-04T04:17:09.750Z,92186.16
2022-08-04T04:20:27.338Z,92194.09
2022-08-04T04:24:08.239Z,92194.38
2022-08-04T04:27:51.735Z,92197.94
2022-08-04T04:30:58.405Z,92195.97
2022-08-04T04:34:20.888Z,92191.22
2022-08-04T04:37:36.771Z,92180.91
2022-08-04T04:41:02.106Z,92191.31
2022-08-04T04:44:14.544Z,92189.13
2022-08-04T04:48:07.669Z,92189.31
2022-08-04T04:51:17.431Z,92190.59
2022-08-04T04:55:12.356Z,92195.53
2022-08-04T04:58:18.847Z,92187.91
2022-08-04T05:01:41.370Z,92193.78
2022-08-04T05:05:21.117Z,92185.72
2022-08-04T05:08:54.026Z,92185.34
2022-08-04T05:14:24.840Z,92186.38
2022-08-04T05:15:54.867Z,92173.16
2022-08-04T05:19:17.135Z,92182.78
2022-08-04T05:22:30.886Z,92181.69
2022-08-04T05:25:42.383Z,92170.63
2022-08-04T05:29:08.668Z,92160.03
2022-08-04T05:32:16.920Z,92166.63
2022-08-04T05:36:17.968Z,92170.69
2022-08-04T05:39:03.215Z,92157.97
2022-08-04T05:42:08.431Z,92160.72
2022-08-04T05:45:13.690Z,92171.72
2022-08-04T05:48:18.629Z,92161.91
2022-08-04T05:51:22.840Z,92159.03
2022-08-04T05:54:28.496Z,92159.19
2022-08-04T05:57:32.919Z,92166.09
2022-08-04T06:00:41.484Z,92152.41
2022-08-04T06:03:48.122Z,92152.41
2022-08-04T06:06:53.351Z,92152.41
2022-08-04T06:09:57.251Z,92164.69
2022-08-04T06:13:07.075Z,92166.69
2022-08-04T06:16:17.981Z,92165.47
2022-08-04T06:20:02.567Z,92152.31
2022-08-04T06:23:06.718Z,92157.28
2022-08-04T06:26:12.191Z,92144.75
2022-08-04T06:29:30.136Z,92137.69
2022-08-04T06:32:48.438Z,92155.88
2022-08-04T06:35:55.939Z,92141.31
2022-08-04T06:39:03.112Z,92140.53
2022-08-04T06:42:21.405Z,92146.72
2022-08-04T06:45:28.940Z,92141.03
2022-08-04T06:48:33.827Z,92137.03
2022-08-04T06:51:48.730Z,92143.41
2022-08-04T06:54:54.187Z,92136.38
2022-08-04T06:58:03.109Z,92160.16
2022-08-04T07:01:07.886Z,92152.94
2022-08-04T07:04:12.766Z,92159.53
2022-08-04T07:07:17.370Z,92158.81
2022-08-04T07:10:24.249Z,92177.06
2022-08-04T07:13:28.815Z,92155.66
2022-08-04T07:16:33.347Z,92175.44
2022-08-04T07:19:37.669Z,92164.28
2022-08-04T07:22:43.950Z,92176.97
2022-08-04T07:26:10.783Z,92157.41
2022-08-04T07:29:17.656Z,92163.69
2022-08-04T07:32:23.314Z,92159.53
2022-08-04T07:36:09.480Z,92134.72
2022-08-04T07:38:53.403Z,92131.69
2022-08-04T07:42:02.233Z,92136.84
2022-08-04T07:45:07.218Z,92131.16
2022-08-04T07:48:15.540Z,92137.66
2022-08-04T07:51:19.723Z,92128.06
2022-08-04T07:54:24.754Z,92119.25
2022-08-04T07:57:41.667Z,92098.16
2022-08-04T08:00:48.162Z,92115.28
2022-08-04T08:03:53.717Z,92113.31
2022-08-04T08:06:59.160Z,92106.38
2022-08-04T08:10:06.195Z,92102.66
2022-08-04T08:13:13.463Z,92107.66
2022-08-04T08:16:17.181Z,92117.06
2022-08-04T08:19:22.335Z,92105.31
2022-08-04T08:22:26.325Z,92118.63
2022-08-04T08:25:34.809Z,92110.06
2022-08-04T08:28:38.699Z,92097.00
2022-08-04T08:31:56.280Z,92090.56
2022-08-04T08:35:02.805Z,92094.91
2022-08-04T08:38:09.913Z,92085.25
2022-08-04T08:41:20.704Z,92085.91
2022-08-04T08:44:46.275Z,92089.06
2022-08-04T08:48:06.146Z,92087.41
2022-08-04T08:51:29.671Z,92085.72
2022-08-04T08:54:41.404Z,92083.69
2022-08-04T08:58:00.308Z,92091.59
2022-08-04T09:01:15.357Z,92092.50
2022-08-04T09:04:34.819Z,92083.81
2022-08-04T09:07:47.592Z,92092.66
2022-08-04T09:10:59.887Z,92094.75
2022-08-04T09:14:18.031Z,92100.34
2022-08-04T09:17:29.536Z,92089.28
2022-08-04T09:20:54.959Z,92088.41
2022-08-04T09:24:36.119Z,92085.44
2022-08-04T09:28:09.203Z,92074.88
2022-08-04T09:31:20.895Z,92096.56
2022-08-04T09:35:03.083Z,92112.38
2022-08-04T09:38:34.227Z,92142.31
2022-08-04T09:41:57.260Z,92107.16
2022-08-04T09:45:44.186Z,92095.06
2022-08-04T09:48:59.419Z,92091.97
2022-08-04T09:52:20.341Z,92110.56
2022-08-04T09:55:36.202Z,92106.13
2022-08-04T09:59:24.148Z,92098.84
2022-08-04T10:02:32.949Z,92101.94
2022-08-04T10:06:09.217Z,92113.41
2022-08-04T10:09:31.585Z,92113.75
2022-08-04T10:12:53.838Z,92108.25
2022-08-04T10:16:21.538Z,92110.56
2022-08-04T10:19:32.674Z,92102.63
2022-08-04T10:23:09.381Z,92101.19
2022-08-04T10:26:16.746Z,92103.50
2022-08-04T10:29:31.954Z,92088.38
2022-08-04T10:32:43.365Z,92089.53
2022-08-04T10:35:51.263Z,92085.25
2022-08-04T10:39:41.720Z,92080.75
2022-08-04T10:42:43.470Z,92076.09
2022-08-04T10:46:04.716Z,92100.59
2022-08-04T10:49:10.896Z,92091.94
2022-08-04T10:52:27.444Z,92101.22
2022-08-04T10:56:06.986Z,92102.31
2022-08-04T10:59:11.348Z,92104.16
2022-08-04T11:02:42.614Z,92112.63
2022-08-04T11:05:49.655Z,92105.44
2022-08-04T11:08:56.435Z,92112.03
2022-08-04T11:12:11.461Z,92107.75
2022-08-04T11:15:39.232Z,92109.13
2022-08-04T11:18:46.187Z,92108.25
2022-08-04T11:22:10.341Z,92109.72
2022-08-04T11:25:29.263Z,92109.81
2022-08-04T11:29:04.045Z,92112.75
2022-08-04T11:32:17.838Z,92090.25
2022-08-04T11:35:32.131Z,92102.03
2022-08-04T11:38:50.876Z,92102.63
2022-08-04T11:42:33.735Z,92097.16
2022-08-04T11:45:53.894Z,92077.72
2022-08-04T11:49:16.287Z,92080.03
2022-08-04T11:52:22.390Z,92093.00
2022-08-04T11:55:28.009Z,92088.88
2022-08-04T11:58:31.762Z,92085.38
2022-08-04T12:02:12.393Z,92082.59
2022-08-04T12:05:37.008Z,92083.06
2022-08-04T12:08:55.523Z,92089.53
2022-08-04T12:12:23.273Z,92097.47
2022-08-04T12:15:45.937Z,92096.88
2022-08-04T12:19:23.001Z,92098.53
2022-08-04T12:22:31.447Z,92098.09
2022-08-04T12:25:44.871Z,92101.09
2022-08-04T12:29:09.715Z,92094.34
2022-08-04T12:32:26.142Z,92089.13
2022-08-04T12:35:58.037Z,92101.44
2022-08-04T12:39:19.584Z,92096.84
2022-08-04T12:42:25.203Z,92106.06
2022-08-04T12:45:30.456Z,92091.66
2022-08-04T12:48:37.242Z,92101.34
2022-08-04T12:52:08.163Z,92101.13
2022-08-04T12:55:10.302Z,92107.97
2022-08-04T12:58:43.055Z,92107.06
2022-08-04T13:02:08.014Z,92106.13
2022-08-04T13:05:16.811Z,92108.59
2022-08-04T13:08:23.047Z,92103.81
2022-08-04T13:11:26.766Z,92109.50
2022-08-04T13:14:38.550Z,92124.47
2022-08-04T13:17:53.806Z,92128.72
2022-08-04T13:21:23.159Z,92124.91
2022-08-04T13:25:17.965Z,92118.56
2022-08-04T13:28:18.139Z,92116.16
2022-08-04T13:31:35.436Z,92121.44
2022-08-04T13:34:49.583Z,92095.31
2022-08-04T13:37:58.037Z,92109.84
2022-08-04T13:41:04.778Z,92119.94
2022-08-04T13:44:18.059Z,92117.38
2022-08-04T13:47:35.049Z,92119.13
2022-08-04T13:50:40.356Z,92111.50
2022-08-04T13:53:44.465Z,92119.91
2022-08-04T13:56:56.739Z,92119.13
2022-08-04T14:00:05.965Z,92115.91
2022-08-04T14:03:23.305Z,92117.19
2022-08-04T14:06:32.657Z,92117.91
2022-08-04T14:09:40.186Z,92118.63
2022-08-04T14:13:06.776Z,92102.31
2022-08-04T14:16:21.720Z,92108.41
2022-08-04T14:19:30.921Z,92121.72
2022-08-04T14:22:39.390Z,92112.78
2022-08-04T14:25:43.433Z,92116.00
2022-08-04T14:29:08.483Z,92111.13
2022-08-04T14:32:14.575Z,92107.78
2022-08-04T14:35:49.165Z,92114.47
2022-08-04T14:39:00.697Z,92119.72
2022-08-04T14:42:05.006Z,92122.19
2022-08-04T14:45:09.715Z,92115.78
2022-08-04T14:48:14.999Z,92123.47
2022-08-04T14:51:26.166Z,92115.19
2022-08-04T14:54:40.817Z,92131.63
2022-08-04T14:58:34.088Z,92125.91
2022-08-04T15:01:12.025Z,92125.91
2022-08-04T15:04:16.738Z,92136.13
2022-08-04T15:07:20.458Z,92123.28
2022-08-04T15:10:24.099Z,92124.03
2022-08-04T15:13:28.192Z,92123.16
2022-08-04T15:16:33.145Z,92121.56
2022-08-04T15:19:38.163Z,92134.69
2022-08-04T15:22:41.968Z,92128.31
2022-08-04T15:26:01.209Z,92132.31
2022-08-04T15:29:18.701Z,92125.13
2022-08-04T15:32:22.901Z,92135.47
2022-08-04T15:35:39.136Z,92139.28
2022-08-04T15:38:57.345Z,92129.72
2022-08-04T15:42:21.180Z,92148.63
2022-08-04T15:46:02.935Z,92143.78
2022-08-04T15:48:53.024Z,92142.53
2022-08-04T15:52:04.516Z,92148.84
2022-08-04T15:55:35.398Z,92143.22
2022-08-04T15:58:51.532Z,92157.97
2022-08-04T16:02:44.798Z,92152.53
2022-08-04T16:05:48.736Z,92150.25
2022-08-04T16:08:58.185Z,92159.94
2022-08-04T16:12:02.371Z,92154.91
2022-08-04T16:15:49.631Z,92146.88
2022-08-04T16:18:53.339Z,92152.53
2022-08-04T16:22:00.525Z,92164.97
2022-08-04T16:25:05.552Z,92159.84
2022-08-04T16:28:29.867Z,92158.72
2022-08-04T16:31:36.645Z,92166.09
2022-08-04T16:34:49.761Z,92164.13
2022-08-04T16:38:15.378Z,92155.88
2022-08-04T16:41:40.414Z,92165.59
2022-08-04T16:44:53.125Z,92168.84
2022-08-04T16:47:57.234Z,92169.50
2022-08-04T16:51:10.216Z,92169.34
2022-08-04T16:54:13.963Z,92158.47
2022-08-04T16:57:17.832Z,92169.53
2022-08-04T17:00:37.044Z,92171.56
2022-08-04T17:03:56.117Z,92175.50
2022-08-04T17:07:07.230Z,92179.94
2022-08-04T17:10:10.859Z,92177.91
2022-08-04T17:14:03.149Z,92180.56
2022-08-04T17:17:08.819Z,92185.91
2022-08-04T17:20:13.093Z,92178.97
2022-08-04T17:24:12.639Z,92190.53
2022-08-04T17:26:54.315Z,92193.28
2022-08-04T17:29:58.718Z,92200.19
2022-08-04T17:33:02.762Z,92185.03
2022-08-04T17:36:08.530Z,92182.34
2022-08-04T17:39:21.650Z,92182.63
2022-08-04T17:42:33.702Z,92181.81
2022-08-04T17:45:52.903Z,92188.91
2022-08-04T17:49:07.269Z,92179.34
2022-08-04T17:52:41.550Z,92199.31
2022-08-04T17:55:49.340Z,92215.44
2022-08-04T17:59:09.390Z,92208.53
2022-08-04T18:02:13.832Z,92204.25
2022-08-04T18:05:50.204Z,92212.13
2022-08-04T18:08:57.918Z,92210.91
2022-08-04T18:15:44.088Z,92218.47
2022-08-04T18:19:11.360Z,92222.03
2022-08-04T18:22:16.768Z,92230.28
2022-08-04T18:25:51.589Z,92231.50
2022-08-04T18:28:55.870Z,92215.91
2022-08-04T18:31:59.838Z,92240.13
2022-08-04T18:35:05.765Z,92232.59
2022-08-04T18:38:22.394Z,92230.19
2022-08-04T18:41:51.647Z,92227.34
2022-08-04T18:44:56.135Z,92214.47
2022-08-04T18:48:01.808Z,92225.13
2022-08-04T18:51:22.549Z,92221.34
2022-08-04T18:54:28.147Z,92246.88
2022-08-04T18:58:00.696Z,92234.91
2022-08-04T19:01:00.451Z,92225.66
2022-08-04T19:04:04.936Z,92217.16
2022-08-04T19:07:30.615Z,92228.88
2022-08-04T19:10:35.038Z,92233.47
2022-08-04T19:13:38.692Z,92230.00
2022-08-04T19:16:46.004Z,92219.56
2022-08-04T19:19:51.997Z,92225.38
2022-08-04T19:24:10.272Z,92225.72
2022-08-04T19:26:28.121Z,92212.56
2022-08-04T19:29:37.696Z,92226.28
2022-08-04T19:32:42.099Z,92231.72
2022-08-04T19:35:52.460Z,92229.38
2022-08-04T19:39:01.351Z,92222.47
2022-08-04T19:42:06.514Z,92227.84
2022-08-04T19:45:15.470Z,92205.22
2022-08-04T19:48:20.338Z,92207.44
2022-08-04T19:51:23.827Z,92222.78
2022-08-04T19:54:33.458Z,92216.19
2022-08-04T19:57:46.363Z,92221.84
2022-08-04T20:00:53.932Z,92229.91
2022-08-04T20:04:10.558Z,92226.38
2022-08-04T20:07:15.174Z,92233.88
2022-08-04T20:10:23.935Z,92237.84
2022-08-04T20:13:37.120Z,92249.13
2022-08-04T20:16:41.064Z,92248.81
2022-08-04T20:19:51.082Z,92247.47
2022-08-04T20:22:55.769Z,92245.66
2022-08-04T20:25:59.613Z,92256.22
2022-08-04T20:29:05.708Z,92256.38
2022-08-04T20:32:11.473Z,92258.41
2022-08-04T20:35:16.567Z,92259.88
2022-08-04T20:38:32.740Z,92263.25
2022-08-04T20:41:37.245Z,92258.06
2022-08-04T20:44:42.372Z,92266.03
2022-08-04T20:47:54.069Z,92270.00
2022-08-04T20:50:59.010Z,92270.88
2022-08-04T20:54:16.447Z,92272.06
2022-08-04T20:57:48.379Z,92272.56
2022-08-04T21:00:45.145Z,92260.06
2022-08-04T21:04:28.071Z,92265.88
2022-08-04T21:07:36.467Z,92235.88
2022-08-04T21:10:47.466Z,92257.81
2022-08-04T21:13:52.901Z,92263.47
2022-08-04T21:16:58.765Z,92268.78
2022-08-04T21:20:02.871Z,92281.38
2022-08-04T21:23:07.523Z,92288.88
2022-08-04T21:26:11.069Z,92286.38
2022-08-04T21:29:17.219Z,92292.28
2022-08-04T21:32:20.971Z,92282.28
2022-08-04T21:35:37.423Z,92289.59
2022-08-04T21:38:51.668Z,92278.06
2022-08-04T21:42:27.701Z,92281.22
2022-08-04T21:45:19.991Z,92293.41
2022-08-04T21:48:27.532Z,92293.00
2022-08-04T21:51:57.909Z,92303.47
2022-08-04T21:55:01.185Z,92310.34
2022-08-04T21:58:05.187Z,92313.50
2022-08-04T22:01:13.291Z,92302.84
2022-08-04T22:04:18.224Z,92300.16
2022-08-04T22:07:23.277Z,92295.97
2022-08-04T22:10:32.988Z,92295.94
2022-08-04T22:13:52.826Z,92305.88
2022-08-04T22:17:01.725Z,92305.44
2022-08-04T22:20:06.387Z,92307.41
2022-08-04T22:23:31.404Z,92320.28
2022-08-04T22:26:55.150Z,92325.94
2022-08-04T22:29:58.997Z,92329.75
2022-08-04T22:33:03.933Z,92324.41
2022-08-04T22:36:07.534Z,92337.44
2022-08-04T22:39:11.901Z,92333.38
2022-08-04T22:42:16.475Z,92339.06
2022-08-04T22:45:20.378Z,92343.00
2022-08-04T22:48:34.110Z,92326.06
2022-08-04T22:51:38.160Z,92335.63
2022-08-04T22:54:41.940Z,92332.50
2022-08-04T22:58:05.251Z,92336.09
2022-08-04T23:01:11.731Z,92331.88
2022-08-04T23:04:18.854Z,92326.59
2022-08-04T23:07:24.158Z,92316.19
2022-08-04T23:10:46.849Z,92324.19
2022-08-04T23:13:50.663Z,92325.63
2022-08-04T23:16:54.901Z,92326.19
2022-08-04T23:19:59.523Z,92315.03
2022-08-04T23:23:14.776Z,92319.28
2022-08-04T23:26:19.277Z,92313.72
2022-08-04T23:29:53.214Z,92307.66
2022-08-04T23:32:55.454Z,92307.91
2022-08-04T23:35:59.579Z,92302.00
2022-08-04T23:39:06.562Z,92305.53
2022-08-04T23:42:11.028Z,92320.53
2022-08-04T23:45:35.632Z,92314.88
2022-08-04T23:48:48.348Z,92320.47
2022-08-04T23:51:52.280Z,92315.22
2022-08-04T23:55:00.225Z,92325.53
2022-08-04T23:58:16.821Z,92325.44
